sensor_id;sensor_type;location;lat;lon;timestamp;P1;durP1;ratioP1;P2;durP2;ratioP2
3257;SDS011;1641;51.306;12.384;2022-09-21T00:03:37;8.40;;;4.10;;
3257;SDS011;1641;51.306;12.384;2022-09-21T00:06:09;6.03;;;4.13;;
3257;SDS011;1641;51.306;12.384;2022-09-21T00:08:37;9.20;;;4.60;;
3257;SDS011;1641;51.306;12.384;2022-09-21T00:11:03;5.85;;;4.38;;
3257;SDS011;1641;51.306;12.384;2022-09-21T00:13:35;6.55;;;4.57;;
3257;SDS011;1641;51.306;12.384;2022-09-21T00:16:07;6.28;;;4.22;;
3257;SDS011;1641;51.306;12.384;2022-09-21T00:21:08;6.13;;;4.57;;
3257;SDS011;1641;51.306;12.384;2022-09-21T00:23:41;6.57;;;4.70;;
3257;SDS011;1641;51.306;12.384;2022-09-21T00:26:14;7.68;;;5.18;;
3257;SDS011;1641;51.306;12.384;2022-09-21T00:28:50;7.68;;;5.00;;
3257;SDS011;1641;51.306;12.384;2022-09-21T00:31:18;6.63;;;5.60;;
3257;SDS011;1641;51.306;12.384;2022-09-21T00:33:44;9.98;;;6.78;;
3257;SDS011;1641;51.306;12.384;2022-09-21T00:36:10;6.85;;;5.13;;
3257;SDS011;1641;51.306;12.384;2022-09-21T00:38:38;10.38;;;5.63;;
3257;SDS011;1641;51.306;12.384;2022-09-21T00:41:05;8.27;;;5.95;;
3257;SDS011;1641;51.306;12.384;2022-09-21T00:43:35;7.50;;;6.10;;
3257;SDS011;1641;51.306;12.384;2022-09-21T00:46:06;7.97;;;5.38;;
3257;SDS011;1641;51.306;12.384;2022-09-21T00:48:39;13.63;;;6.25;;
3257;SDS011;1641;51.306;12.384;2022-09-21T00:51:05;7.13;;;6.38;;
3257;SDS011;1641;51.306;12.384;2022-09-21T00:53:33;12.27;;;6.85;;
3257;SDS011;1641;51.306;12.384;2022-09-21T00:56:00;9.43;;;6.03;;
3257;SDS011;1641;51.306;12.384;2022-09-21T00:58:28;7.03;;;6.30;;
3257;SDS011;1641;51.306;12.384;2022-09-21T01:00:57;9.10;;;6.35;;
3257;SDS011;1641;51.306;12.384;2022-09-21T01:03:24;10.95;;;6.85;;
3257;SDS011;1641;51.306;12.384;2022-09-21T01:05:51;8.73;;;6.97;;
3257;SDS011;1641;51.306;12.384;2022-09-21T01:08:17;10.63;;;7.22;;
3257;SDS011;1641;51.306;12.384;2022-09-21T01:10:58;9.85;;;8.30;;
3257;SDS011;1641;51.306;12.384;2022-09-21T01:16:30;8.98;;;7.03;;
3257;SDS011;1641;51.306;12.384;2022-09-21T01:28:26;12.45;;;8.68;;
3257;SDS011;1641;51.306;12.384;2022-09-21T01:31:33;12.63;;;9.50;;
3257;SDS011;1641;51.306;12.384;2022-09-21T01:34:06;9.75;;;8.45;;
3257;SDS011;1641;51.306;12.384;2022-09-21T01:36:38;14.95;;;10.05;;
3257;SDS011;1641;51.306;12.384;2022-09-21T01:39:07;18.42;;;10.50;;
3257;SDS011;1641;51.306;12.384;2022-09-21T01:41:37;12.40;;;9.32;;
3257;SDS011;1641;51.306;12.384;2022-09-21T01:44:08;13.48;;;10.25;;
3257;SDS011;1641;51.306;12.384;2022-09-21T01:46:37;17.25;;;11.48;;
3257;SDS011;1641;51.306;12.384;2022-09-21T01:49:09;11.70;;;10.45;;
3257;SDS011;1641;51.306;12.384;2022-09-21T01:51:38;15.65;;;11.40;;
3257;SDS011;1641;51.306;12.384;2022-09-21T01:54:12;11.98;;;10.10;;
3257;SDS011;1641;51.306;12.384;2022-09-21T01:56:44;17.85;;;11.93;;
3257;SDS011;1641;51.306;12.384;2022-09-21T01:59:17;13.48;;;9.82;;
3257;SDS011;1641;51.306;12.384;2022-09-21T02:01:58;11.02;;;9.90;;
3257;SDS011;1641;51.306;12.384;2022-09-21T02:04:28;14.85;;;10.77;;
3257;SDS011;1641;51.306;12.384;2022-09-21T02:06:54;15.75;;;12.63;;
3257;SDS011;1641;51.306;12.384;2022-09-21T02:09:20;12.52;;;10.20;;
3257;SDS011;1641;51.306;12.384;2022-09-21T02:11:45;17.15;;;11.75;;
3257;SDS011;1641;51.306;12.384;2022-09-21T02:14:11;18.23;;;12.10;;
3257;SDS011;1641;51.306;12.384;2022-09-21T02:16:39;14.00;;;11.40;;
3257;SDS011;1641;51.306;12.384;2022-09-21T02:19:35;16.17;;;10.30;;
3257;SDS011;1641;51.306;12.384;2022-09-21T02:24:41;16.27;;;11.05;;
3257;SDS011;1641;51.306;12.384;2022-09-21T02:27:20;12.65;;;11.10;;
3257;SDS011;1641;51.306;12.384;2022-09-21T02:34:59;20.73;;;11.40;;
3257;SDS011;1641;51.306;12.384;2022-09-21T02:37:33;13.97;;;11.33;;
3257;SDS011;1641;51.306;12.384;2022-09-21T02:42:58;16.58;;;11.50;;
3257;SDS011;1641;51.306;12.384;2022-09-21T02:45:27;15.15;;;11.13;;
3257;SDS011;1641;51.306;12.384;2022-09-21T02:47:58;12.57;;;11.02;;
3257;SDS011;1641;51.306;12.384;2022-09-21T02:50:32;12.55;;;9.93;;
3257;SDS011;1641;51.306;12.384;2022-09-21T02:53:03;12.32;;;10.63;;
3257;SDS011;1641;51.306;12.384;2022-09-21T02:55:30;15.85;;;10.60;;
3257;SDS011;1641;51.306;12.384;2022-09-21T02:57:57;15.00;;;11.13;;
3257;SDS011;1641;51.306;12.384;2022-09-21T03:00:26;12.60;;;11.15;;
3257;SDS011;1641;51.306;12.384;2022-09-21T03:02:51;16.25;;;11.13;;
3257;SDS011;1641;51.306;12.384;2022-09-21T03:05:16;17.50;;;11.38;;
3257;SDS011;1641;51.306;12.384;2022-09-21T03:07:41;11.77;;;10.13;;
3257;SDS011;1641;51.306;12.384;2022-09-21T03:10:07;16.42;;;11.05;;
3257;SDS011;1641;51.306;12.384;2022-09-21T03:12:33;16.85;;;11.23;;
3257;SDS011;1641;51.306;12.384;2022-09-21T03:14:58;15.95;;;12.13;;
3257;SDS011;1641;51.306;12.384;2022-09-21T03:17:24;21.05;;;12.25;;
3257;SDS011;1641;51.306;12.384;2022-09-21T03:19:50;16.27;;;11.18;;
3257;SDS011;1641;51.306;12.384;2022-09-21T03:22:15;13.25;;;11.30;;
3257;SDS011;1641;51.306;12.384;2022-09-21T03:24:41;16.63;;;12.43;;
3257;SDS011;1641;51.306;12.384;2022-09-21T03:27:10;17.48;;;11.27;;
3257;SDS011;1641;51.306;12.384;2022-09-21T03:29:45;15.15;;;11.98;;
3257;SDS011;1641;51.306;12.384;2022-09-21T03:32:10;20.90;;;12.13;;
3257;SDS011;1641;51.306;12.384;2022-09-21T03:34:36;18.38;;;11.75;;
3257;SDS011;1641;51.306;12.384;2022-09-21T03:37:02;14.20;;;11.30;;
3257;SDS011;1641;51.306;12.384;2022-09-21T03:39:30;19.58;;;10.80;;
3257;SDS011;1641;51.306;12.384;2022-09-21T03:41:55;14.77;;;12.07;;
3257;SDS011;1641;51.306;12.384;2022-09-21T03:44:21;15.90;;;10.77;;
3257;SDS011;1641;51.306;12.384;2022-09-21T03:46:47;20.33;;;11.50;;
3257;SDS011;1641;51.306;12.384;2022-09-21T03:49:12;13.85;;;11.23;;
3257;SDS011;1641;51.306;12.384;2022-09-21T03:51:37;18.95;;;11.02;;
3257;SDS011;1641;51.306;12.384;2022-09-21T03:54:03;16.13;;;11.23;;
3257;SDS011;1641;51.306;12.384;2022-09-21T03:56:28;15.18;;;11.35;;
3257;SDS011;1641;51.306;12.384;2022-09-21T03:58:54;17.75;;;12.05;;
3257;SDS011;1641;51.306;12.384;2022-09-21T04:01:19;14.57;;;11.18;;
3257;SDS011;1641;51.306;12.384;2022-09-21T04:03:44;15.90;;;11.38;;
3257;SDS011;1641;51.306;12.384;2022-09-21T04:06:10;15.75;;;11.05;;
3257;SDS011;1641;51.306;12.384;2022-09-21T04:08:37;12.95;;;11.57;;
3257;SDS011;1641;51.306;12.384;2022-09-21T04:11:12;15.10;;;10.60;;
3257;SDS011;1641;51.306;12.384;2022-09-21T04:13:39;18.58;;;11.13;;
3257;SDS011;1641;51.306;12.384;2022-09-21T04:16:06;15.85;;;11.35;;
3257;SDS011;1641;51.306;12.384;2022-09-21T04:18:31;22.08;;;12.20;;
3257;SDS011;1641;51.306;12.384;2022-09-21T04:20:57;18.15;;;12.13;;
3257;SDS011;1641;51.306;12.384;2022-09-21T04:23:23;15.40;;;10.95;;
3257;SDS011;1641;51.306;12.384;2022-09-21T04:25:48;14.30;;;10.57;;
3257;SDS011;1641;51.306;12.384;2022-09-21T04:28:17;16.52;;;12.60;;
3257;SDS011;1641;51.306;12.384;2022-09-21T04:30:42;18.40;;;11.48;;
3257;SDS011;1641;51.306;12.384;2022-09-21T04:33:07;15.23;;;11.05;;
3257;SDS011;1641;51.306;12.384;2022-09-21T04:35:33;20.27;;;11.82;;
3257;SDS011;1641;51.306;12.384;2022-09-21T04:37:58;13.05;;;9.70;;
3257;SDS011;1641;51.306;12.384;2022-09-21T04:40:23;18.50;;;11.15;;
3257;SDS011;1641;51.306;12.384;2022-09-21T04:42:51;14.70;;;11.43;;
3257;SDS011;1641;51.306;12.384;2022-09-21T04:45:20;16.20;;;10.90;;
3257;SDS011;1641;51.306;12.384;2022-09-21T04:47:46;15.70;;;10.88;;
3257;SDS011;1641;51.306;12.384;2022-09-21T04:50:12;16.23;;;11.38;;
3257;SDS011;1641;51.306;12.384;2022-09-21T04:52:37;18.63;;;11.68;;
3257;SDS011;1641;51.306;12.384;2022-09-21T04:55:04;19.80;;;12.20;;
3257;SDS011;1641;51.306;12.384;2022-09-21T04:57:30;14.38;;;10.60;;
3257;SDS011;1641;51.306;12.384;2022-09-21T04:59:55;20.52;;;11.90;;
3257;SDS011;1641;51.306;12.384;2022-09-21T05:02:21;19.27;;;11.82;;
3257;SDS011;1641;51.306;12.384;2022-09-21T05:04:46;18.42;;;11.30;;
3257;SDS011;1641;51.306;12.384;2022-09-21T05:07:11;16.40;;;11.25;;
3257;SDS011;1641;51.306;12.384;2022-09-21T05:09:36;20.40;;;11.77;;
3257;SDS011;1641;51.306;12.384;2022-09-21T05:12:20;20.40;;;13.02;;
3257;SDS011;1641;51.306;12.384;2022-09-21T05:14:45;16.85;;;11.38;;
3257;SDS011;1641;51.306;12.384;2022-09-21T05:17:10;20.67;;;12.20;;
3257;SDS011;1641;51.306;12.384;2022-09-21T05:19:37;23.05;;;13.27;;
3257;SDS011;1641;51.306;12.384;2022-09-21T05:22:03;16.08;;;11.30;;
3257;SDS011;1641;51.306;12.384;2022-09-21T05:24:28;18.23;;;11.80;;
3257;SDS011;1641;51.306;12.384;2022-09-21T05:26:53;17.55;;;13.27;;
3257;SDS011;1641;51.306;12.384;2022-09-21T05:29:18;17.83;;;12.02;;
3257;SDS011;1641;51.306;12.384;2022-09-21T05:31:48;17.15;;;11.50;;
3257;SDS011;1641;51.306;12.384;2022-09-21T05:36:57;16.67;;;11.40;;
3257;SDS011;1641;51.306;12.384;2022-09-21T05:39:27;22.48;;;11.65;;
3257;SDS011;1641;51.306;12.384;2022-09-21T05:41:52;17.67;;;11.10;;
3257;SDS011;1641;51.306;12.384;2022-09-21T05:44:18;20.02;;;10.77;;
3257;SDS011;1641;51.306;12.384;2022-09-21T05:46:48;14.65;;;9.55;;
3257;SDS011;1641;51.306;12.384;2022-09-21T05:49:21;12.85;;;10.55;;
3257;SDS011;1641;51.306;12.384;2022-09-21T05:57:24;17.85;;;11.85;;
3257;SDS011;1641;51.306;12.384;2022-09-21T06:00:13;14.75;;;10.35;;
3257;SDS011;1641;51.306;12.384;2022-09-21T06:05:45;19.08;;;12.15;;
3257;SDS011;1641;51.306;12.384;2022-09-21T06:08:10;17.75;;;10.43;;
3257;SDS011;1641;51.306;12.384;2022-09-21T06:10:36;12.35;;;9.35;;
3257;SDS011;1641;51.306;12.384;2022-09-21T06:13:01;9.90;;;7.45;;
3257;SDS011;1641;51.306;12.384;2022-09-21T06:15:26;8.40;;;6.30;;
3257;SDS011;1641;51.306;12.384;2022-09-21T06:17:52;9.65;;;6.25;;
3257;SDS011;1641;51.306;12.384;2022-09-21T06:20:17;9.40;;;4.53;;
3257;SDS011;1641;51.306;12.384;2022-09-21T06:22:42;8.40;;;5.00;;
3257;SDS011;1641;51.306;12.384;2022-09-21T06:25:08;6.00;;;4.00;;
3257;SDS011;1641;51.306;12.384;2022-09-21T06:27:33;11.98;;;6.97;;
3257;SDS011;1641;51.306;12.384;2022-09-21T06:29:58;7.50;;;4.43;;
3257;SDS011;1641;51.306;12.384;2022-09-21T06:32:24;5.75;;;4.70;;
3257;SDS011;1641;51.306;12.384;2022-09-21T06:34:49;11.13;;;7.32;;
3257;SDS011;1641;51.306;12.384;2022-09-21T06:37:14;13.05;;;7.90;;
3257;SDS011;1641;51.306;12.384;2022-09-21T06:39:39;9.10;;;5.93;;
3257;SDS011;1641;51.306;12.384;2022-09-21T06:42:05;15.27;;;9.80;;
3257;SDS011;1641;51.306;12.384;2022-09-21T06:44:30;6.75;;;4.50;;
3257;SDS011;1641;51.306;12.384;2022-09-21T06:46:56;14.73;;;9.90;;
3257;SDS011;1641;51.306;12.384;2022-09-21T06:49:21;5.55;;;3.90;;
3257;SDS011;1641;51.306;12.384;2022-09-21T06:51:47;22.05;;;13.23;;
3257;SDS011;1641;51.306;12.384;2022-09-21T06:54:12;4.53;;;3.58;;
3257;SDS011;1641;51.306;12.384;2022-09-21T06:56:37;6.35;;;4.40;;
3257;SDS011;1641;51.306;12.384;2022-09-21T06:59:03;8.70;;;5.18;;
3257;SDS011;1641;51.306;12.384;2022-09-21T07:01:28;11.90;;;8.27;;
3257;SDS011;1641;51.306;12.384;2022-09-21T07:03:53;6.95;;;5.35;;
3257;SDS011;1641;51.306;12.384;2022-09-21T07:06:19;12.02;;;4.15;;
3257;SDS011;1641;51.306;12.384;2022-09-21T07:08:44;6.63;;;4.43;;
3257;SDS011;1641;51.306;12.384;2022-09-21T07:11:10;5.78;;;4.07;;
3257;SDS011;1641;51.306;12.384;2022-09-21T07:13:36;5.68;;;4.07;;
3257;SDS011;1641;51.306;12.384;2022-09-21T07:16:02;11.38;;;7.78;;
3257;SDS011;1641;51.306;12.384;2022-09-21T07:18:31;10.63;;;7.20;;
3257;SDS011;1641;51.306;12.384;2022-09-21T07:21:00;5.93;;;4.38;;
3257;SDS011;1641;51.306;12.384;2022-09-21T07:23:27;6.60;;;4.28;;
3257;SDS011;1641;51.306;12.384;2022-09-21T07:25:53;11.15;;;6.00;;
3257;SDS011;1641;51.306;12.384;2022-09-21T07:28:18;12.98;;;7.18;;
3257;SDS011;1641;51.306;12.384;2022-09-21T07:30:44;7.57;;;5.78;;
3257;SDS011;1641;51.306;12.384;2022-09-21T07:33:09;5.75;;;4.13;;
3257;SDS011;1641;51.306;12.384;2022-09-21T07:35:34;11.43;;;4.20;;
3257;SDS011;1641;51.306;12.384;2022-09-21T07:38:00;7.75;;;4.80;;
3257;SDS011;1641;51.306;12.384;2022-09-21T07:40:27;8.50;;;5.13;;
3257;SDS011;1641;51.306;12.384;2022-09-21T07:42:56;9.35;;;5.07;;
3257;SDS011;1641;51.306;12.384;2022-09-21T07:45:22;5.82;;;4.00;;
3257;SDS011;1641;51.306;12.384;2022-09-21T07:47:49;9.52;;;5.80;;
3257;SDS011;1641;51.306;12.384;2022-09-21T07:50:14;8.65;;;4.85;;
3257;SDS011;1641;51.306;12.384;2022-09-21T07:52:39;7.15;;;3.88;;
3257;SDS011;1641;51.306;12.384;2022-09-21T07:55:11;7.32;;;4.90;;
3257;SDS011;1641;51.306;12.384;2022-09-21T07:57:37;8.32;;;4.45;;
3257;SDS011;1641;51.306;12.384;2022-09-21T08:02:56;14.35;;;6.90;;
3257;SDS011;1641;51.306;12.384;2022-09-21T08:05:22;7.45;;;4.05;;
3257;SDS011;1641;51.306;12.384;2022-09-21T08:07:47;8.82;;;4.60;;
3257;SDS011;1641;51.306;12.384;2022-09-21T08:10:12;10.32;;;4.88;;
3257;SDS011;1641;51.306;12.384;2022-09-21T08:12:39;13.02;;;5.40;;
3257;SDS011;1641;51.306;12.384;2022-09-21T08:15:23;8.20;;;4.50;;
3257;SDS011;1641;51.306;12.384;2022-09-21T08:17:48;5.90;;;4.50;;
3257;SDS011;1641;51.306;12.384;2022-09-21T08:20:15;7.88;;;4.68;;
3257;SDS011;1641;51.306;12.384;2022-09-21T08:22:54;5.53;;;4.03;;
3257;SDS011;1641;51.306;12.384;2022-09-21T08:25:24;10.80;;;4.43;;
3257;SDS011;1641;51.306;12.384;2022-09-21T08:27:49;8.50;;;4.88;;
3257;SDS011;1641;51.306;12.384;2022-09-21T08:30:14;10.32;;;4.45;;
3257;SDS011;1641;51.306;12.384;2022-09-21T08:32:39;21.25;;;5.60;;
3257;SDS011;1641;51.306;12.384;2022-09-21T08:35:06;13.60;;;4.35;;
3257;SDS011;1641;51.306;12.384;2022-09-21T08:37:32;7.43;;;3.80;;
3257;SDS011;1641;51.306;12.384;2022-09-21T08:39:59;10.20;;;5.07;;
3257;SDS011;1641;51.306;12.384;2022-09-21T08:45:31;8.02;;;4.47;;
3257;SDS011;1641;51.306;12.384;2022-09-21T08:48:00;5.93;;;3.30;;
3257;SDS011;1641;51.306;12.384;2022-09-21T08:50:36;5.53;;;4.00;;
3257;SDS011;1641;51.306;12.384;2022-09-21T08:53:07;6.50;;;4.03;;
3257;SDS011;1641;51.306;12.384;2022-09-21T08:55:37;30.13;;;14.48;;
3257;SDS011;1641;51.306;12.384;2022-09-21T08:58:02;11.23;;;4.90;;
3257;SDS011;1641;51.306;12.384;2022-09-21T09:00:45;7.07;;;4.00;;
3257;SDS011;1641;51.306;12.384;2022-09-21T09:03:16;18.35;;;9.48;;
3257;SDS011;1641;51.306;12.384;2022-09-21T09:06:06;13.70;;;5.25;;
3257;SDS011;1641;51.306;12.384;2022-09-21T09:11:54;13.20;;;3.65;;
3257;SDS011;1641;51.306;12.384;2022-09-21T09:19:59;5.78;;;3.90;;
3257;SDS011;1641;51.306;12.384;2022-09-21T09:22:36;7.45;;;3.53;;
3257;SDS011;1641;51.306;12.384;2022-09-21T09:25:13;5.88;;;3.40;;
3257;SDS011;1641;51.306;12.384;2022-09-21T09:27:45;4.93;;;3.33;;
3257;SDS011;1641;51.306;12.384;2022-09-21T09:30:18;8.82;;;4.25;;
3257;SDS011;1641;51.306;12.384;2022-09-21T09:32:48;4.45;;;3.08;;
3257;SDS011;1641;51.306;12.384;2022-09-21T09:46:52;9.88;;;4.50;;
3257;SDS011;1641;51.306;12.384;2022-09-21T09:52:21;6.22;;;3.03;;
3257;SDS011;1641;51.306;12.384;2022-09-21T09:54:47;4.90;;;2.80;;
3257;SDS011;1641;51.306;12.384;2022-09-21T09:57:13;6.97;;;2.90;;
3257;SDS011;1641;51.306;12.384;2022-09-21T09:59:51;5.20;;;2.75;;
3257;SDS011;1641;51.306;12.384;2022-09-21T10:02:26;5.63;;;2.35;;
3257;SDS011;1641;51.306;12.384;2022-09-21T10:04:57;3.80;;;1.90;;
3257;SDS011;1641;51.306;12.384;2022-09-21T10:07:38;4.70;;;2.17;;
3257;SDS011;1641;51.306;12.384;2022-09-21T10:10:49;4.65;;;2.00;;
3257;SDS011;1641;51.306;12.384;2022-09-21T10:15:38;5.10;;;1.73;;
3257;SDS011;1641;51.306;12.384;2022-09-21T10:20:56;2.33;;;1.80;;
3257;SDS011;1641;51.306;12.384;2022-09-21T10:23:24;5.22;;;2.05;;
3257;SDS011;1641;51.306;12.384;2022-09-21T10:25:54;3.92;;;1.92;;
3257;SDS011;1641;51.306;12.384;2022-09-21T10:28:22;4.72;;;1.52;;
3257;SDS011;1641;51.306;12.384;2022-09-21T10:31:33;2.92;;;1.73;;
3257;SDS011;1641;51.306;12.384;2022-09-21T10:33:50;4.15;;;1.77;;
3257;SDS011;1641;51.306;12.384;2022-09-21T10:36:28;4.70;;;1.98;;
3257;SDS011;1641;51.306;12.384;2022-09-21T10:39:08;6.72;;;3.08;;
3257;SDS011;1641;51.306;12.384;2022-09-21T10:44:41;2.78;;;1.38;;
3257;SDS011;1641;51.306;12.384;2022-09-21T10:47:15;4.87;;;2.27;;
3257;SDS011;1641;51.306;12.384;2022-09-21T10:50:04;2.70;;;2.10;;
3257;SDS011;1641;51.306;12.384;2022-09-21T10:52:44;7.80;;;3.35;;
3257;SDS011;1641;51.306;12.384;2022-09-21T10:55:16;6.47;;;1.50;;
3257;SDS011;1641;51.306;12.384;2022-09-21T10:57:43;5.18;;;2.42;;
3257;SDS011;1641;51.306;12.384;2022-09-21T11:02:50;10.15;;;2.88;;
3257;SDS011;1641;51.306;12.384;2022-09-21T11:07:46;6.00;;;1.53;;
3257;SDS011;1641;51.306;12.384;2022-09-21T11:13:52;2.88;;;1.40;;
3257;SDS011;1641;51.306;12.384;2022-09-21T11:16:27;5.03;;;1.20;;
3257;SDS011;1641;51.306;12.384;2022-09-21T11:22:03;4.50;;;2.22;;
3257;SDS011;1641;51.306;12.384;2022-09-21T11:24:39;2.42;;;1.10;;
3257;SDS011;1641;51.306;12.384;2022-09-21T11:27:10;4.18;;;1.02;;
3257;SDS011;1641;51.306;12.384;2022-09-21T11:32:44;4.18;;;1.45;;
3257;SDS011;1641;51.306;12.384;2022-09-21T11:46:22;4.18;;;0.82;;
3257;SDS011;1641;51.306;12.384;2022-09-21T11:48:58;5.78;;;1.08;;
3257;SDS011;1641;51.306;12.384;2022-09-21T12:05:05;1.50;;;0.88;;
3257;SDS011;1641;51.306;12.384;2022-09-21T12:08:01;2.22;;;1.13;;
3257;SDS011;1641;51.306;12.384;2022-09-21T12:10:43;7.53;;;2.55;;
3257;SDS011;1641;51.306;12.384;2022-09-21T12:15:57;2.67;;;1.20;;
3257;SDS011;1641;51.306;12.384;2022-09-21T12:18:40;5.07;;;2.28;;
3257;SDS011;1641;51.306;12.384;2022-09-21T12:21:29;2.60;;;1.48;;
3257;SDS011;1641;51.306;12.384;2022-09-21T12:24:02;2.37;;;0.70;;
3257;SDS011;1641;51.306;12.384;2022-09-21T12:26:40;3.17;;;1.33;;
3257;SDS011;1641;51.306;12.384;2022-09-21T12:35:03;8.63;;;3.08;;
3257;SDS011;1641;51.306;12.384;2022-09-21T12:37:47;2.38;;;0.95;;
3257;SDS011;1641;51.306;12.384;2022-09-21T12:45:50;5.95;;;2.33;;
3257;SDS011;1641;51.306;12.384;2022-09-21T12:48:37;3.35;;;1.02;;
3257;SDS011;1641;51.306;12.384;2022-09-21T12:51:12;10.40;;;1.30;;
3257;SDS011;1641;51.306;12.384;2022-09-21T12:53:39;5.45;;;2.25;;
3257;SDS011;1641;51.306;12.384;2022-09-21T12:56:11;5.50;;;1.02;;
3257;SDS011;1641;51.306;12.384;2022-09-21T12:58:56;3.53;;;0.70;;
3257;SDS011;1641;51.306;12.384;2022-09-21T13:01:52;1.08;;;0.60;;
3257;SDS011;1641;51.306;12.384;2022-09-21T13:04:34;6.22;;;0.70;;
3257;SDS011;1641;51.306;12.384;2022-09-21T13:07:22;1.65;;;0.60;;
3257;SDS011;1641;51.306;12.384;2022-09-21T13:10:16;1.10;;;0.90;;
3257;SDS011;1641;51.306;12.384;2022-09-21T13:12:43;3.08;;;1.15;;
3257;SDS011;1641;51.306;12.384;2022-09-21T13:15:22;0.88;;;0.50;;
3257;SDS011;1641;51.306;12.384;2022-09-21T13:18:04;4.93;;;2.70;;
3257;SDS011;1641;51.306;12.384;2022-09-21T13:20:55;3.13;;;1.10;;
3257;SDS011;1641;51.306;12.384;2022-09-21T13:23:36;1.55;;;0.85;;
3257;SDS011;1641;51.306;12.384;2022-09-21T13:26:06;1.92;;;0.82;;
3257;SDS011;1641;51.306;12.384;2022-09-21T13:33:40;2.58;;;1.13;;
3257;SDS011;1641;51.306;12.384;2022-09-21T13:47:44;7.82;;;0.93;;
3257;SDS011;1641;51.306;12.384;2022-09-21T13:52:44;2.65;;;0.88;;
3257;SDS011;1641;51.306;12.384;2022-09-21T13:57:54;2.53;;;1.27;;
3257;SDS011;1641;51.306;12.384;2022-09-21T14:05:31;3.08;;;1.02;;
3257;SDS011;1641;51.306;12.384;2022-09-21T14:08:20;6.68;;;2.17;;
3257;SDS011;1641;51.306;12.384;2022-09-21T14:13:32;5.35;;;1.88;;
3257;SDS011;1641;51.306;12.384;2022-09-21T14:18:52;8.63;;;3.83;;
3257;SDS011;1641;51.306;12.384;2022-09-21T14:21:18;7.65;;;4.07;;
3257;SDS011;1641;51.306;12.384;2022-09-21T14:26:32;3.17;;;0.95;;
3257;SDS011;1641;51.306;12.384;2022-09-21T14:29:23;4.80;;;1.20;;
3257;SDS011;1641;51.306;12.384;2022-09-21T14:31:54;1.90;;;0.95;;
3257;SDS011;1641;51.306;12.384;2022-09-21T14:34:31;2.63;;;0.82;;
3257;SDS011;1641;51.306;12.384;2022-09-21T14:37:01;1.45;;;0.60;;
3257;SDS011;1641;51.306;12.384;2022-09-21T14:39:36;7.28;;;2.75;;
3257;SDS011;1641;51.306;12.384;2022-09-21T14:42:07;2.45;;;1.25;;
3257;SDS011;1641;51.306;12.384;2022-09-21T14:44:43;7.63;;;2.78;;
3257;SDS011;1641;51.306;12.384;2022-09-21T14:53:02;3.92;;;1.27;;
3257;SDS011;1641;51.306;12.384;2022-09-21T14:58:28;5.50;;;1.50;;
3257;SDS011;1641;51.306;12.384;2022-09-21T15:01:18;3.40;;;0.93;;
3257;SDS011;1641;51.306;12.384;2022-09-21T15:06:35;1.73;;;1.08;;
3257;SDS011;1641;51.306;12.384;2022-09-21T15:12:31;2.33;;;0.98;;
3257;SDS011;1641;51.306;12.384;2022-09-21T15:18:16;2.17;;;0.88;;
3257;SDS011;1641;51.306;12.384;2022-09-21T15:21:01;2.80;;;1.10;;
3257;SDS011;1641;51.306;12.384;2022-09-21T15:23:52;6.45;;;3.55;;
3257;SDS011;1641;51.306;12.384;2022-09-21T15:26:21;2.97;;;1.45;;
3257;SDS011;1641;51.306;12.384;2022-09-21T15:29:01;2.55;;;1.35;;
3257;SDS011;1641;51.306;12.384;2022-09-21T15:31:37;3.03;;;1.90;;
3257;SDS011;1641;51.306;12.384;2022-09-21T15:34:06;1.33;;;0.90;;
3257;SDS011;1641;51.306;12.384;2022-09-21T15:36:42;2.90;;;1.13;;
3257;SDS011;1641;51.306;12.384;2022-09-21T15:39:20;1.25;;;1.00;;
3257;SDS011;1641;51.306;12.384;2022-09-21T15:44:41;4.00;;;1.15;;
3257;SDS011;1641;51.306;12.384;2022-09-21T15:47:12;2.45;;;0.70;;
3257;SDS011;1641;51.306;12.384;2022-09-21T15:49:43;3.00;;;1.02;;
3257;SDS011;1641;51.306;12.384;2022-09-21T15:55:13;4.05;;;2.08;;
3257;SDS011;1641;51.306;12.384;2022-09-21T15:57:45;4.72;;;2.20;;
3257;SDS011;1641;51.306;12.384;2022-09-21T16:02:48;3.22;;;1.83;;
3257;SDS011;1641;51.306;12.384;2022-09-21T16:05:19;3.63;;;2.05;;
3257;SDS011;1641;51.306;12.384;2022-09-21T16:07:49;4.80;;;2.50;;
3257;SDS011;1641;51.306;12.384;2022-09-21T16:12:58;5.23;;;2.70;;
3257;SDS011;1641;51.306;12.384;2022-09-21T16:16:03;4.57;;;1.45;;
3257;SDS011;1641;51.306;12.384;2022-09-21T16:18:56;2.25;;;1.38;;
3257;SDS011;1641;51.306;12.384;2022-09-21T16:21:28;2.78;;;1.33;;
3257;SDS011;1641;51.306;12.384;2022-09-21T16:24:07;1.38;;;1.00;;
3257;SDS011;1641;51.306;12.384;2022-09-21T16:26:48;2.38;;;1.00;;
3257;SDS011;1641;51.306;12.384;2022-09-21T16:29:21;2.95;;;2.00;;
3257;SDS011;1641;51.306;12.384;2022-09-21T16:31:49;3.70;;;1.90;;
3257;SDS011;1641;51.306;12.384;2022-09-21T16:34:48;1.90;;;1.10;;
3257;SDS011;1641;51.306;12.384;2022-09-21T16:39:54;2.08;;;1.27;;
3257;SDS011;1641;51.306;12.384;2022-09-21T16:42:30;1.63;;;1.08;;
3257;SDS011;1641;51.306;12.384;2022-09-21T16:44:57;1.60;;;1.42;;
3257;SDS011;1641;51.306;12.384;2022-09-21T16:47:26;2.70;;;1.50;;
3257;SDS011;1641;51.306;12.384;2022-09-21T16:50:05;3.53;;;1.23;;
3257;SDS011;1641;51.306;12.384;2022-09-21T16:52:38;4.32;;;1.65;;
3257;SDS011;1641;51.306;12.384;2022-09-21T16:55:09;4.38;;;1.13;;
3257;SDS011;1641;51.306;12.384;2022-09-21T17:00:16;4.63;;;1.70;;
3257;SDS011;1641;51.306;12.384;2022-09-21T17:02:45;1.73;;;1.45;;
3257;SDS011;1641;51.306;12.384;2022-09-21T17:05:19;2.58;;;1.23;;
3257;SDS011;1641;51.306;12.384;2022-09-21T17:08:02;15.55;;;8.40;;
3257;SDS011;1641;51.306;12.384;2022-09-21T17:10:30;2.88;;;2.30;;
3257;SDS011;1641;51.306;12.384;2022-09-21T17:12:58;7.50;;;3.58;;
3257;SDS011;1641;51.306;12.384;2022-09-21T17:15:28;5.70;;;3.30;;
3257;SDS011;1641;51.306;12.384;2022-09-21T17:18:08;3.60;;;1.38;;
3257;SDS011;1641;51.306;12.384;2022-09-21T17:20:48;4.22;;;2.65;;
3257;SDS011;1641;51.306;12.384;2022-09-21T17:23:15;5.38;;;2.47;;
3257;SDS011;1641;51.306;12.384;2022-09-21T17:25:44;3.33;;;1.70;;
3257;SDS011;1641;51.306;12.384;2022-09-21T17:28:11;6.90;;;4.22;;
3257;SDS011;1641;51.306;12.384;2022-09-21T17:30:39;4.10;;;1.58;;
3257;SDS011;1641;51.306;12.384;2022-09-21T17:33:19;15.23;;;7.72;;
3257;SDS011;1641;51.306;12.384;2022-09-21T17:35:45;5.40;;;3.58;;
3257;SDS011;1641;51.306;12.384;2022-09-21T17:38:12;11.38;;;4.57;;
3257;SDS011;1641;51.306;12.384;2022-09-21T17:40:37;6.55;;;1.92;;
3257;SDS011;1641;51.306;12.384;2022-09-21T17:45:46;6.88;;;3.00;;
3257;SDS011;1641;51.306;12.384;2022-09-21T17:48:19;3.97;;;2.83;;
3257;SDS011;1641;51.306;12.384;2022-09-21T17:50:46;5.68;;;2.42;;
3257;SDS011;1641;51.306;12.384;2022-09-21T17:53:13;10.23;;;6.00;;
3257;SDS011;1641;51.306;12.384;2022-09-21T18:01:14;6.22;;;4.38;;
3257;SDS011;1641;51.306;12.384;2022-09-21T18:03:48;8.60;;;5.35;;
3257;SDS011;1641;51.306;12.384;2022-09-21T18:06:17;7.28;;;4.70;;
3257;SDS011;1641;51.306;12.384;2022-09-21T18:14:04;13.38;;;5.88;;
3257;SDS011;1641;51.306;12.384;2022-09-21T18:21:51;10.70;;;5.85;;
3257;SDS011;1641;51.306;12.384;2022-09-21T18:24:27;12.15;;;5.80;;
3257;SDS011;1641;51.306;12.384;2022-09-21T18:26:55;3.70;;;2.90;;
3257;SDS011;1641;51.306;12.384;2022-09-21T18:29:26;4.78;;;3.60;;
3257;SDS011;1641;51.306;12.384;2022-09-21T18:44:23;9.13;;;5.53;;
3257;SDS011;1641;51.306;12.384;2022-09-21T18:55:44;12.00;;;7.43;;
3257;SDS011;1641;51.306;12.384;2022-09-21T18:58:16;8.10;;;5.30;;
3257;SDS011;1641;51.306;12.384;2022-09-21T19:00:46;8.50;;;5.67;;
3257;SDS011;1641;51.306;12.384;2022-09-21T19:03:13;12.90;;;7.70;;
3257;SDS011;1641;51.306;12.384;2022-09-21T19:05:55;13.02;;;7.78;;
3257;SDS011;1641;51.306;12.384;2022-09-21T19:11:31;10.50;;;6.57;;
3257;SDS011;1641;51.306;12.384;2022-09-21T19:25:41;15.75;;;10.10;;
3257;SDS011;1641;51.306;12.384;2022-09-21T19:28:19;12.65;;;8.65;;
3257;SDS011;1641;51.306;12.384;2022-09-21T19:31:03;16.77;;;9.52;;